Time;durP1;ratioP1;P1;durP2;ratioP2;P2;SDS_P1;SDS_P2;PMS_P1;PMS_P2;Temp;Humidity;BMP_temperature;BMP_pressure;BME280_temperature;BME280_humidity;BME280_pressure;Samples;Min_cycle;Max_cycle;Signal;HPM_P1;HPM_P2
2022/06/14 00:03:39;;;;;;;5.12;0.90;;;20.30;99.90;;;;;;1915551;73;21160;-84
2022/06/14 00:06:33;;;;;;;3.83;0.90;;;20.30;99.90;;;;;;1916774;73;21043;-83
2022/06/14 00:09:25;;;;;;;3.42;0.80;;;20.20;99.90;;;;;;1917030;73;21166;-84
2022/06/14 00:12:16;;;;;;;5.72;0.90;;;20.20;99.90;;;;;;1915907;73;21196;-84
2022/06/14 00:15:10;;;;;;;2.10;0.82;;;20.20;99.90;;;;;;1922225;73;21110;-84
2022/06/14 00:18:01;;;;;;;2.98;0.90;;;20.20;99.90;;;;;;1920823;73;21192;-84
2022/06/14 00:20:57;;;;;;;1.40;0.70;;;20.20;99.90;;;;;;1904385;74;21219;-84
2022/06/14 00:23:49;;;;;;;2.25;0.82;;;20.20;99.90;;;;;;1916595;73;21206;-84
2022/06/14 00:26:40;;;;;;;3.47;0.90;;;20.20;99.90;;;;;;1904323;74;21115;-84
2022/06/14 00:29:32;;;;;;;3.30;0.85;;;20.10;99.90;;;;;;1920195;73;21178;-84
2022/06/14 00:32:23;;;;;;;3.08;0.90;;;20.10;99.90;;;;;;1917624;73;21231;-84
2022/06/14 00:35:15;;;;;;;2.52;1.00;;;20.00;99.90;;;;;;1923038;73;21063;-84
2022/06/14 00:38:06;;;;;;;1.75;0.70;;;20.00;99.90;;;;;;1924596;73;21088;-84
2022/06/14 00:41:01;;;;;;;1.45;0.85;;;20.00;99.90;;;;;;1917593;73;21065;-84
2022/06/14 00:43:52;;;;;;;2.92;1.07;;;20.00;99.90;;;;;;1921687;73;21191;-84
2022/06/14 00:46:47;;;;;;;4.17;1.02;;;20.00;99.90;;;;;;1927233;73;21186;-84
2022/06/14 00:49:41;;;;;;;3.08;0.70;;;19.90;99.90;;;;;;1926606;73;21079;-84
2022/06/14 00:52:36;;;;;;;2.27;1.02;;;19.90;99.90;;;;;;1917943;73;21181;-84
2022/06/14 00:55:32;;;;;;;2.33;0.85;;;19.80;99.90;;;;;;1926743;73;21092;-84
2022/06/14 00:58:26;;;;;;;1.72;0.80;;;19.80;99.90;;;;;;1916371;73;21245;-84
2022/06/14 01:01:20;;;;;;;3.52;0.90;;;19.90;99.90;;;;;;1921130;73;21197;-84
2022/06/14 01:04:15;;;;;;;2.37;1.00;;;19.90;99.90;;;;;;1917384;73;21110;-84
2022/06/14 01:07:11;;;;;;;2.35;0.80;;;19.90;99.90;;;;;;1929826;73;21092;-84
2022/06/14 01:12:51;;;;;;;2.37;1.00;;;19.90;99.90;;;;;;1937331;72;22227;-83
2022/06/14 01:16:01;;;;;;;3.10;0.80;;;20.00;99.90;;;;;;1901565;75;21107;-84
2022/06/14 01:21:56;;;;;;;2.90;1.00;;;19.90;99.90;;;;;;1929421;72;22294;-83
2022/06/14 01:25:09;;;;;;;2.83;0.90;;;19.70;99.90;;;;;;1913537;74;21088;-82
2022/06/14 01:28:21;;;;;;;2.75;0.72;;;19.70;99.90;;;;;;1915557;74;21185;-84
2022/06/14 01:31:14;;;;;;;3.22;0.80;;;19.80;99.90;;;;;;1911630;74;21281;-83
2022/06/14 01:34:25;;;;;;;3.25;1.27;;;19.90;99.90;;;;;;1909604;74;21109;-84
2022/06/14 01:37:16;;;;;;;2.62;1.20;;;19.90;99.90;;;;;;1908472;74;21092;-84
2022/06/14 01:40:11;;;;;;;2.22;1.12;;;19.90;99.90;;;;;;1908368;74;21085;-84
2022/06/14 01:43:13;;;;;;;2.50;0.80;;;19.80;99.90;;;;;;1911019;74;21097;-84
2022/06/14 01:46:09;;;;;;;6.10;1.25;;;19.80;99.90;;;;;;1911318;74;21188;-84
2022/06/14 01:52:23;;;;;;;1.70;0.93;;;19.60;99.90;;;;;;1907066;74;21153;-84
2022/06/14 01:55:20;;;;;;;3.22;1.00;;;19.50;99.90;;;;;;1910083;74;21652;-84
2022/06/14 02:00:58;;;;;;;4.00;1.10;;;19.40;99.90;;;;;;1930255;72;22298;-83
2022/06/14 02:07:43;;;;;;;3.10;0.90;;;19.20;99.90;;;;;;1898577;75;21053;-84
2022/06/14 02:10:37;;;;;;;2.98;1.07;;;19.20;99.90;;;;;;1896752;74;21228;-84
2022/06/14 02:13:49;;;;;;;2.95;0.95;;;19.00;99.90;;;;;;1906358;74;21167;-83
2022/06/14 02:16:43;;;;;;;1.30;1.00;;;18.90;99.90;;;;;;1895196;74;21107;-83
2022/06/14 02:19:38;;;;;;;2.72;1.10;;;18.90;99.90;;;;;;1903280;75;21181;-83
2022/06/14 02:22:33;;;;;;;1.77;1.12;;;18.90;99.90;;;;;;1891122;75;21063;-84
2022/06/14 02:25:28;;;;;;;2.05;0.93;;;18.90;99.90;;;;;;1897724;75;21620;-83
2022/06/14 02:28:23;;;;;;;2.67;1.17;;;18.90;99.90;;;;;;1906271;75;21158;-83
2022/06/14 02:31:17;;;;;;;2.33;0.90;;;19.00;99.90;;;;;;1892762;75;21150;-83
2022/06/14 02:34:12;;;;;;;3.40;1.05;;;19.00;99.90;;;;;;1892976;75;21162;-84
2022/06/14 02:37:09;;;;;;;2.12;0.98;;;19.00;99.90;;;;;;1893151;75;21102;-84
2022/06/14 02:40:02;;;;;;;2.95;1.32;;;19.00;99.90;;;;;;1882727;76;21563;-84
2022/06/14 02:42:57;;;;;;;1.95;0.98;;;19.10;99.90;;;;;;1901778;74;21169;-83
2022/06/14 02:45:51;;;;;;;2.72;1.05;;;19.00;99.90;;;;;;1903377;75;21183;-84
2022/06/14 02:48:47;;;;;;;5.85;1.20;;;19.00;99.90;;;;;;1894253;75;21126;-84
2022/06/14 02:51:42;;;;;;;2.25;1.05;;;19.10;99.90;;;;;;1911596;75;21155;-83
2022/06/14 02:54:36;;;;;;;2.22;0.93;;;19.10;99.90;;;;;;1891876;75;21204;-84
2022/06/14 02:57:31;;;;;;;2.45;1.12;;;19.20;99.90;;;;;;1902677;75;21174;-84
2022/06/14 03:00:26;;;;;;;2.37;1.12;;;19.20;99.90;;;;;;1890949;75;21208;-84
2022/06/14 03:03:21;;;;;;;2.65;1.10;;;19.20;99.90;;;;;;1882633;75;21114;-84
2022/06/14 03:06:16;;;;;;;2.85;1.00;;;19.20;99.90;;;;;;1885302;75;21463;-84
2022/06/14 03:09:10;;;;;;;3.37;1.25;;;19.20;99.90;;;;;;1889706;75;21146;-84
2022/06/14 03:12:09;;;;;;;2.47;1.15;;;19.20;99.90;;;;;;1880064;74;21174;-84
2022/06/14 03:15:06;;;;;;;4.03;1.10;;;19.20;99.90;;;;;;1892493;74;21173;-84
2022/06/14 03:18:02;;;;;;;5.05;1.32;;;19.20;99.90;;;;;;1904186;75;21141;-85
2022/06/14 03:20:58;;;;;;;2.90;1.20;;;19.20;99.90;;;;;;1892281;75;21705;-84
2022/06/14 03:23:52;;;;;;;3.47;1.10;;;19.10;99.90;;;;;;1877334;75;21228;-84
2022/06/14 03:26:49;;;;;;;3.17;1.55;;;19.00;99.90;;;;;;1893091;75;21092;-84
2022/06/14 03:29:43;;;;;;;1.82;1.15;;;18.90;99.90;;;;;;1876003;75;21328;-85
2022/06/14 03:32:38;;;;;;;2.05;1.20;;;18.80;99.90;;;;;;1896699;75;21183;-84
2022/06/14 03:35:32;;;;;;;3.10;1.07;;;18.60;99.90;;;;;;1882903;75;21634;-84
2022/06/14 03:38:27;;;;;;;2.08;0.98;;;18.60;99.90;;;;;;1883107;75;21156;-84
2022/06/14 03:41:21;;;;;;;2.95;1.05;;;18.60;99.90;;;;;;1885744;75;21154;-84
2022/06/14 03:44:14;;;;;;;3.87;1.32;;;18.60;99.90;;;;;;1900387;74;21118;-84
2022/06/14 03:47:26;;;;;;;3.05;1.30;;;18.70;99.90;;;;;;1898196;74;21130;-84
2022/06/14 03:53:11;;;;;;;2.50;1.20;;;18.70;99.90;;;;;;1921664;72;22199;-84
2022/06/14 03:56:29;;;;;;;4.25;1.30;;;18.80;99.90;;;;;;1912047;74;21171;-83
2022/06/14 03:59:48;;;;;;;4.20;2.10;;;18.80;99.90;;;;;;1901666;74;21197;-84
2022/06/14 04:02:58;;;;;;;2.55;1.30;;;18.80;99.90;;;;;;1900190;74;21186;-83
2022/06/14 04:06:15;;;;;;;3.70;1.37;;;18.80;99.90;;;;;;1896763;74;21609;-83
2022/06/14 04:09:13;;;;;;;2.95;1.60;;;18.70;99.90;;;;;;1896678;74;21160;-84
2022/06/14 04:12:08;;;;;;;3.37;1.55;;;18.70;99.90;;;;;;1906971;74;21169;-83
2022/06/14 04:15:14;;;;;;;2.90;1.55;;;18.70;99.90;;;;;;1891384;74;21140;-84
2022/06/14 04:20:51;;;;;;;3.92;1.92;;;18.80;99.90;;;;;;1914200;72;28167;-84
2022/06/14 04:24:05;;;;;;;4.17;1.60;;;19.00;99.90;;;;;;1891631;75;21145;-85
2022/06/14 04:27:17;;;;;;;4.47;1.62;;;19.00;99.90;;;;;;1869274;76;21156;-85
2022/06/14 04:30:14;;;;;;;5.08;1.72;;;18.90;99.90;;;;;;1898055;75;21201;-84
2022/06/14 04:33:28;;;;;;;4.42;1.60;;;18.90;99.90;;;;;;1898116;75;21130;-85
2022/06/14 04:36:22;;;;;;;3.33;1.70;;;18.90;99.90;;;;;;1901156;75;21163;-85
2022/06/14 04:41:59;;;;;;;4.37;1.42;;;19.00;99.90;;;;;;1927218;72;22865;-83
2022/06/14 04:45:12;;;;;;;2.85;1.57;;;18.90;99.90;;;;;;1861145;75;21127;-83
2022/06/14 04:48:27;;;;;;;6.15;1.62;;;19.00;99.90;;;;;;1900745;74;21213;-83
2022/06/14 04:51:21;;;;;;;3.67;1.80;;;19.00;99.90;;;;;;1894739;74;21179;-83
2022/06/14 04:54:35;;;;;;;2.65;1.60;;;19.10;99.90;;;;;;1904357;74;21256;-83
2022/06/14 05:00:16;;;;;;;4.72;1.75;;;19.10;99.90;;;;;;1934553;72;22202;-80
2022/06/14 05:03:29;;;;;;;4.62;1.52;;;19.20;99.90;;;;;;1898568;75;21138;-83
2022/06/14 05:06:42;;;;;;;5.80;1.42;;;19.20;99.90;;;;;;1889577;75;21101;-84
2022/06/14 05:09:40;;;;;;;3.92;1.05;;;19.30;99.90;;;;;;1898467;73;21091;-84
2022/06/14 05:12:53;;;;;;;3.58;1.30;;;19.30;99.90;;;;;;1914018;73;21627;-84
2022/06/14 05:15:47;;;;;;;4.08;1.40;;;19.30;99.90;;;;;;1904445;75;21106;-84
2022/06/14 05:18:42;;;;;;;2.50;1.20;;;19.30;99.90;;;;;;1907484;75;21090;-84
2022/06/14 05:24:15;;;;;;;5.05;3.35;;;19.40;99.90;;;;;;1927606;72;22275;-77
2022/06/14 05:27:48;;;;;;;4.03;1.40;;;19.40;99.90;;;;;;1901622;75;21150;-83
2022/06/14 05:31:06;;;;;;;3.47;1.47;;;19.40;99.90;;;;;;1913053;75;21549;-96
2022/06/14 05:34:01;;;;;;;3.83;1.55;;;19.50;99.90;;;;;;1917056;75;21216;-95
2022/06/14 05:37:34;;;;;;;2.72;1.47;;;19.50;99.90;;;;;;1917183;75;21098;-96
2022/06/14 05:44:46;;;;;;;3.10;1.40;;;19.70;99.90;;;;;;1918356;75;21062;-96
2022/06/14 05:47:53;;;;;;;2.20;1.40;;;19.70;99.90;;;;;;1890661;75;21088;-95
2022/06/14 05:50:48;;;;;;;3.27;1.52;;;19.80;99.90;;;;;;1885576;76;21135;-96
2022/06/14 05:53:52;;;;;;;2.90;1.50;;;19.80;99.90;;;;;;1886198;76;21135;-95
2022/06/14 05:56:58;;;;;;;3.35;1.25;;;19.90;99.90;;;;;;1886033;76;21095;-96
2022/06/14 05:59:58;;;;;;;3.42;1.65;;;19.90;99.90;;;;;;1886109;76;21093;-95
2022/06/14 06:02:55;;;;;;;3.17;1.72;;;20.00;99.90;;;;;;1885521;76;21148;-95
2022/06/14 06:05:49;;;;;;;3.40;1.80;;;20.00;99.90;;;;;;1854163;77;21188;-95
2022/06/14 06:56:16;;;;;;;4.47;2.00;;;21.00;99.90;;;;;;1954901;72;22127;-89
2022/06/14 06:59:31;;;;;;;2.60;1.60;;;21.10;99.90;;;;;;1901151;75;21175;-88
2022/06/14 07:02:44;;;;;;;3.33;1.52;;;21.10;99.90;;;;;;1902100;75;21052;-87
2022/06/14 07:05:35;;;;;;;2.77;1.50;;;21.20;99.90;;;;;;1906385;75;21043;-89
2022/06/14 07:08:51;;;;;;;3.55;1.45;;;21.30;99.90;;;;;;1884315;76;21569;-89
2022/06/14 07:11:45;;;;;;;5.37;1.50;;;21.40;99.90;;;;;;1912937;75;21036;-88
2022/06/14 07:14:40;;;;;;;4.42;1.75;;;21.40;99.90;;;;;;1894200;75;21216;-88
2022/06/14 07:17:35;;;;;;;4.10;2.00;;;21.60;99.90;;;;;;1884570;76;21102;-89
2022/06/14 07:20:37;;;;;;;3.55;1.50;;;21.60;99.90;;;;;;1898934;75;21075;-89
2022/06/14 07:23:35;;;;;;;6.12;2.10;;;21.70;99.90;;;;;;1896757;75;21148;-89
2022/06/14 07:26:30;;;;;;;4.58;1.82;;;21.80;99.90;;;;;;1906574;75;21124;-89
2022/06/14 07:29:24;;;;;;;3.12;1.50;;;21.90;99.90;;;;;;1906896;75;21128;-88
2022/06/14 07:32:19;;;;;;;4.55;1.85;;;22.00;99.90;;;;;;1906343;75;21113;-90
2022/06/14 07:35:13;;;;;;;2.40;1.32;;;22.10;99.90;;;;;;1900023;75;21145;-88
2022/06/14 07:38:08;;;;;;;4.08;1.40;;;22.20;99.90;;;;;;1897511;75;21107;-89
2022/06/14 07:41:06;;;;;;;5.15;1.32;;;22.30;99.90;;;;;;1895644;75;21059;-89
2022/06/14 07:44:02;;;;;;;4.95;1.77;;;22.30;99.90;;;;;;1916962;75;21522;-89
2022/06/14 07:47:00;;;;;;;3.30;1.80;;;22.40;99.90;;;;;;1894201;75;21098;-89
2022/06/14 07:49:58;;;;;;;4.92;1.52;;;22.50;99.90;;;;;;1903692;75;21110;-89
2022/06/14 07:52:53;;;;;;;2.87;1.47;;;22.60;99.90;;;;;;1900255;75;21116;-88
2022/06/14 07:55:47;;;;;;;4.08;1.77;;;22.60;99.90;;;;;;1903618;74;21170;-89
2022/06/14 07:58:43;;;;;;;2.72;1.30;;;22.80;99.90;;;;;;1911309;74;21146;-90
2022/06/14 08:01:38;;;;;;;3.00;1.50;;;22.80;99.90;;;;;;1911728;74;21118;-88
2022/06/14 08:04:33;;;;;;;4.03;1.55;;;22.90;99.90;;;;;;1913927;74;21175;-89
2022/06/14 08:07:27;;;;;;;5.67;1.70;;;23.00;99.90;;;;;;1900119;75;21167;-90
2022/06/14 08:10:23;;;;;;;3.17;1.75;;;23.00;99.90;;;;;;1911345;74;21051;-90
2022/06/14 08:13:20;;;;;;;10.08;2.22;;;23.10;99.90;;;;;;1909246;74;21101;-90
2022/06/14 08:16:14;;;;;;;3.87;1.43;;;23.20;99.90;;;;;;1933347;74;21121;-89
2022/06/14 08:19:10;;;;;;;3.27;1.67;;;23.20;99.90;;;;;;1914340;74;21789;-89
2022/06/14 08:22:05;;;;;;;3.85;1.42;;;23.30;99.90;;;;;;1914540;74;21106;-90
2022/06/14 08:25:00;;;;;;;3.47;1.50;;;23.40;99.90;;;;;;1910401;74;21101;-89
2022/06/14 08:27:56;;;;;;;3.12;1.50;;;23.50;99.90;;;;;;1904552;74;21647;-89
2022/06/14 08:30:51;;;;;;;7.95;2.95;;;23.50;99.90;;;;;;1921827;74;21094;-89
2022/06/14 08:33:47;;;;;;;6.15;2.00;;;23.60;99.90;;;;;;1919423;74;21089;-89
2022/06/14 08:36:43;;;;;;;3.55;1.80;;;23.70;99.90;;;;;;1933684;74;21049;-89
2022/06/14 08:39:38;;;;;;;3.12;1.32;;;23.70;99.90;;;;;;1910921;74;21105;-89
2022/06/14 08:42:36;;;;;;;5.10;1.37;;;23.90;99.90;;;;;;1910793;74;21101;-89
2022/06/14 08:45:31;;;;;;;3.12;2.00;;;24.00;99.90;;;;;;1911001;74;21160;-90
2022/06/14 08:48:32;;;;;;;3.00;1.42;;;24.00;99.90;;;;;;1912478;74;21062;-90
2022/06/14 08:51:30;;;;;;;3.87;2.08;;;24.10;99.90;;;;;;1899806;75;21105;-90
2022/06/14 08:54:46;;;;;;;6.45;2.00;;;24.20;99.90;;;;;;1899818;75;21183;-89
2022/06/14 08:57:47;;;;;;;5.30;2.37;;;24.20;99.90;;;;;;1899793;75;21097;-89
2022/06/14 09:00:52;;;;;;;3.72;2.30;;;24.40;99.90;;;;;;1899822;75;21058;-90
2022/06/14 09:04:03;;;;;;;5.35;2.00;;;24.50;99.90;;;;;;1899722;75;21125;-90
2022/06/14 09:07:50;;;;;;;5.90;1.90;;;24.60;99.90;;;;;;1900848;75;21179;-91
2022/06/14 09:14:28;;;;;;;4.37;2.00;;;24.80;99.90;;;;;;1992599;71;22224;-89
2022/06/14 09:18:05;;;;;;;5.25;1.70;;;25.00;99.90;;;;;;2019868;70;21161;-89
2022/06/14 09:21:19;;;;;;;5.07;1.50;;;25.00;99.90;;;;;;1999315;70;21013;-89
2022/06/14 09:24:17;;;;;;;4.58;1.92;;;25.00;99.90;;;;;;2008898;70;21265;-90
2022/06/14 09:27:54;;;;;;;3.65;1.10;;;25.10;99.90;;;;;;2019149;70;21010;-89
2022/06/14 09:31:11;;;;;;;6.87;1.77;;;25.20;99.90;;;;;;2019287;70;21014;-89
2022/06/14 09:34:38;;;;;;;3.12;1.70;;;25.20;99.90;;;;;;2022363;70;21101;-90
2022/06/14 09:37:48;;;;;;;;;;;25.30;99.90;;;;;;2036437;70;21105;-89
2022/06/14 09:40:56;;;;;;;2.50;1.45;;;25.40;99.90;;;;;;2032795;70;20285;-89
2022/06/14 09:44:13;;;;;;;9.75;1.42;;;25.40;99.90;;;;;;2032210;70;21106;-89
2022/06/14 09:47:21;;;;;;;3.47;1.62;;;25.50;99.90;;;;;;2005011;70;21521;-89
2022/06/14 09:50:55;;;;;;;4.30;1.57;;;25.50;99.90;;;;;;2020026;70;21081;-89
2022/06/14 09:54:54;;;;;;;3.22;1.47;;;25.60;99.90;;;;;;1988234;70;21066;-89
2022/06/14 10:01:01;;;;;;;3.58;1.60;;;25.80;99.90;;;;;;1995221;71;22391;-89
2022/06/14 10:04:34;;;;;;;5.83;1.90;;;25.90;99.90;;;;;;1933904;73;21200;-88
2022/06/14 10:11:30;;;;;;;5.65;2.60;;;26.00;99.90;;;;;;1956649;72;22195;-89
2022/06/14 10:14:45;;;;;;;2.42;1.60;;;26.00;99.90;;;;;;1886566;75;21075;-89
2022/06/14 10:18:14;;;;;;;2.80;1.45;;;26.10;99.90;;;;;;1895577;75;21038;-89
2022/06/14 10:21:08;;;;;;;3.00;1.40;;;26.10;99.90;;;;;;1895452;75;21538;-89
2022/06/14 10:24:23;;;;;;;2.55;1.70;;;26.30;99.90;;;;;;1895521;75;21039;-88
2022/06/14 10:30:48;;;;;;;3.52;1.65;;;26.30;99.90;;;;;;1905098;75;21079;-89
2022/06/14 10:33:46;;;;;;;3.58;1.50;;;26.30;99.90;;;;;;1884698;76;21091;-89
2022/06/14 10:37:00;;;;;;;5.22;1.77;;;26.40;99.90;;;;;;1898907;75;21122;-89
2022/06/14 10:43:01;;;;;;;2.85;1.72;;;26.30;99.90;;;;;;1958167;72;22178;-89
2022/06/14 10:46:13;;;;;;;5.20;1.70;;;26.40;99.90;;;;;;1895815;75;21031;-89
2022/06/14 10:56:25;;;;;;;5.33;1.90;;;26.80;99.90;;;;;;1950099;72;22272;-89
2022/06/14 11:00:10;;;;;;;4.67;1.90;;;26.80;99.90;;;;;;1902552;75;21168;-90
2022/06/14 11:03:36;;;;;;;7.40;1.87;;;26.70;99.90;;;;;;1884943;76;21220;-89
2022/06/14 11:07:07;;;;;;;3.95;1.70;;;26.70;99.90;;;;;;1906262;75;21052;-89
2022/06/14 11:10:40;;;;;;;2.42;1.70;;;26.90;99.90;;;;;;1906977;75;21079;-90
2022/06/14 11:13:35;;;;;;;4.83;1.60;;;26.90;99.90;;;;;;1893568;75;21039;-90
2022/06/14 11:16:30;;;;;;;5.10;1.90;;;26.90;99.90;;;;;;1895667;75;21113;-90
2022/06/14 11:19:45;;;;;;;5.65;1.87;;;27.00;99.90;;;;;;1895621;75;21110;-89
2022/06/14 11:22:40;;;;;;;3.25;1.50;;;27.00;99.90;;;;;;1884734;76;21134;-90
2022/06/14 11:25:36;;;;;;;4.53;1.95;;;27.00;99.90;;;;;;1902124;75;21111;-90
2022/06/14 11:28:35;;;;;;;5.05;1.90;;;27.10;99.90;;;;;;1904217;75;21589;-90
2022/06/14 11:31:29;;;;;;;3.02;1.50;;;27.30;99.90;;;;;;1907072;75;21103;-89
2022/06/14 11:34:40;;;;;;;3.90;1.67;;;27.40;99.90;;;;;;1890253;75;21135;-90
2022/06/14 11:37:57;;;;;;;3.05;1.90;;;27.50;99.90;;;;;;1917806;75;21117;-90
2022/06/14 11:40:52;;;;;;;4.12;1.45;;;27.60;99.90;;;;;;1911864;75;21644;-90
2022/06/14 11:43:50;;;;;;;3.90;1.42;;;27.70;99.90;;;;;;1906850;75;21087;-89
2022/06/14 11:49:32;;;;;;;4.00;1.80;;;28.00;99.90;;;;;;1976008;72;22168;-89
2022/06/14 11:55:53;;;;;;;2.83;1.62;;;28.00;99.90;;;;;;1957508;72;22230;-92
2022/06/14 11:59:32;;;;;;;2.80;1.60;;;28.10;99.90;;;;;;1905626;74;21079;-89
2022/06/14 12:02:49;;;;;;;3.08;1.92;;;28.00;99.90;;;;;;1889616;75;21571;-89
2022/06/14 12:05:45;;;;;;;3.50;1.55;;;28.10;99.90;;;;;;1885412;75;21096;-89
2022/06/14 12:09:06;;;;;;;2.37;1.50;;;28.30;99.90;;;;;;1886158;75;21027;-88
2022/06/14 12:12:01;;;;;;;3.08;1.82;;;28.40;99.90;;;;;;1873996;75;21067;-89
2022/06/14 12:14:59;;;;;;;5.58;1.67;;;28.40;99.90;;;;;;1878757;75;21127;-90
2022/06/14 12:17:53;;;;;;;3.80;1.87;;;28.50;99.90;;;;;;1883300;75;21113;-89
2022/06/14 12:20:47;;;;;;;1.77;1.27;;;28.60;99.90;;;;;;1890536;75;21056;-90
2022/06/14 12:23:43;;;;;;;3.62;1.42;;;28.70;99.90;;;;;;1872730;76;21114;-89
2022/06/14 12:26:38;;;;;;;3.27;1.40;;;28.90;99.90;;;;;;1894139;75;21180;-89
2022/06/14 12:29:39;;;;;;;1.72;1.50;;;29.20;99.90;;;;;;1894878;75;21126;-90
2022/06/14 12:32:34;;;;;;;3.52;1.70;;;29.20;99.90;;;;;;1897283;75;21152;-90
2022/06/14 12:35:28;;;;;;;2.72;1.50;;;29.20;99.90;;;;;;1904715;75;21106;-89
2022/06/14 12:38:22;;;;;;;3.87;1.82;;;29.10;99.90;;;;;;1873047;75;21069;-90
2022/06/14 12:41:18;;;;;;;2.25;1.30;;;29.20;99.90;;;;;;1872925;76;21110;-90
2022/06/14 12:44:19;;;;;;;1.85;1.30;;;29.20;99.90;;;;;;1894529;75;21168;-90
2022/06/14 12:47:16;;;;;;;2.00;1.17;;;29.10;99.90;;;;;;1841201;77;21368;-89
2022/06/14 12:50:14;;;;;;;1.80;1.57;;;29.20;99.90;;;;;;1884656;75;21110;-89
2022/06/14 12:53:11;;;;;;;3.25;1.45;;;29.40;99.90;;;;;;1838152;78;21154;-89
2022/06/14 12:56:08;;;;;;;2.47;1.60;;;29.40;99.90;;;;;;1886175;75;21176;-91
2022/06/14 12:59:07;;;;;;;5.05;1.60;;;29.30;99.90;;;;;;1883294;75;21052;-91
2022/06/14 13:02:02;;;;;;;2.35;1.40;;;29.40;99.90;;;;;;1884175;75;21114;-90
2022/06/14 13:04:59;;;;;;;1.85;1.20;;;29.50;99.90;;;;;;1890065;75;21125;-89
2022/06/14 13:08:04;;;;;;;3.33;1.40;;;29.70;99.90;;;;;;1857531;76;21716;-89
2022/06/14 13:11:04;;;;;;;3.30;1.82;;;29.80;99.90;;;;;;1888954;74;21363;-89
2022/06/14 13:14:14;;;;;;;3.15;1.60;;;29.90;99.90;;;;;;1887348;75;21056;-91
2022/06/14 13:17:12;;;;;;;4.53;1.40;;;29.80;99.90;;;;;;1905446;75;21117;-89
2022/06/14 13:20:08;;;;;;;6.30;1.40;;;30.00;99.90;;;;;;1884123;75;21724;-89
2022/06/14 13:23:17;;;;;;;3.98;1.50;;;30.10;99.90;;;;;;1879892;75;21239;-90
2022/06/14 13:26:16;;;;;;;4.87;1.47;;;29.90;99.90;;;;;;1872232;76;21039;-89
2022/06/14 13:29:32;;;;;;;2.85;1.50;;;30.00;99.90;;;;;;1896610;75;21572;-90
2022/06/14 13:32:55;;;;;;;3.17;1.60;;;30.10;99.90;;;;;;1871886;75;21055;-88
2022/06/14 13:35:52;;;;;;;2.45;1.40;;;30.20;99.90;;;;;;1882615;75;21098;-89
2022/06/14 13:38:50;;;;;;;2.90;1.42;;;30.20;99.90;;;;;;1884696;75;21122;-88
2022/06/14 13:42:00;;;;;;;3.60;1.57;;;30.30;99.90;;;;;;1836785;78;21595;-91
2022/06/14 13:47:31;;;;;;;4.22;1.60;;;30.40;99.90;;;;;;1946305;72;22201;-89
2022/06/14 13:50:45;;;;;;;2.50;1.30;;;30.30;99.90;;;;;;1917192;75;21091;-90
2022/06/14 13:54:00;;;;;;;3.42;1.57;;;30.60;99.90;;;;;;1917287;75;21047;-89
2022/06/14 13:56:56;;;;;;;3.73;1.53;;;30.90;99.90;;;;;;1917784;75;21098;-89
2022/06/14 14:00:10;;;;;;;3.83;1.98;;;31.20;99.80;;;;;;1917669;75;21117;-89
2022/06/14 14:03:05;;;;;;;2.85;1.40;;;31.60;98.80;;;;;;1936736;73;21567;-87
2022/06/14 14:08:58;;;;;;;2.92;1.50;;;32.10;95.80;;;;;;1935241;72;27974;-89
2022/06/14 14:12:10;;;;;;;;;;;32.40;94.60;;;;;;1908314;74;21081;-88
2022/06/14 14:15:20;;;;;;;2.35;1.40;;;32.40;93.90;;;;;;1906681;75;20118;-89
2022/06/14 14:18:17;;;;;;;3.00;1.57;;;32.80;93.00;;;;;;1884840;76;21138;-88
2022/06/14 14:21:10;;;;;;;;;;;33.00;92.10;;;;;;1909692;75;21527;-89
2022/06/14 14:24:25;;;;;;;2.87;1.30;;;33.30;92.20;;;;;;1903919;75;20191;-88
2022/06/14 14:27:24;;;;;;;1.40;1.30;;;33.60;90.50;;;;;;1880804;76;21175;-90
2022/06/14 14:30:22;;;;;;;2.60;1.42;;;33.60;90.30;;;;;;1898856;75;21139;-89
2022/06/14 14:33:17;;;;;;;2.60;1.40;;;33.70;87.10;;;;;;1905592;75;21125;-89
2022/06/14 14:36:13;;;;;;;4.58;2.15;;;33.70;86.10;;;;;;1893420;75;21082;-89
2022/06/14 14:39:11;;;;;;;2.75;1.40;;;34.40;90.50;;;;;;1895352;75;21243;-90
2022/06/14 14:42:06;;;;;;;4.35;2.00;;;34.80;87.50;;;;;;1895443;75;21085;-90
2022/06/14 14:45:01;;;;;;;4.63;2.10;;;35.70;87.50;;;;;;1903375;75;21164;-89
2022/06/14 14:47:56;;;;;;;3.92;1.92;;;35.80;87.20;;;;;;1898429;75;21600;-89
2022/06/14 14:50:52;;;;;;;2.75;1.55;;;36.80;85.30;;;;;;1895339;75;21123;-89
2022/06/14 14:53:47;;;;;;;3.42;1.87;;;36.70;77.70;;;;;;1913294;75;21597;-89
2022/06/14 14:59:29;;;;;;;2.72;1.40;;;37.60;77.80;;;;;;1957603;72;22214;-89
2022/06/14 15:06:15;;;;;;;2.02;1.20;;;37.60;72.80;;;;;;1905016;75;21051;-88
2022/06/14 15:09:10;;;;;;;2.45;1.27;;;37.50;68.10;;;;;;1900567;75;21180;-88
2022/06/14 15:12:23;;;;;;;3.70;1.40;;;37.20;66.10;;;;;;1900369;75;21092;-89
2022/06/14 15:15:22;;;;;;;2.00;1.20;;;37.20;65.90;;;;;;1884933;75;21611;-88
2022/06/14 15:21:29;;;;;;;1.72;1.00;;;38.00;66.00;;;;;;1911099;75;21193;-88
2022/06/14 15:27:08;;;;;;;2.85;1.27;;;37.50;62.50;;;;;;1976238;72;22241;-90
2022/06/14 15:30:37;;;;;;;1.98;1.50;;;37.40;62.70;;;;;;1933949;73;21666;-88
2022/06/14 15:33:47;;;;;;;3.52;1.40;;;37.40;63.10;;;;;;1917236;75;21156;-88
2022/06/14 15:36:40;;;;;;;3.80;1.40;;;38.30;62.10;;;;;;1931651;73;21546;-88
2022/06/14 15:39:52;;;;;;;2.85;1.50;;;38.30;61.00;;;;;;1937484;73;21050;-88
2022/06/14 15:42:55;;;;;;;5.62;1.50;;;38.50;60.90;;;;;;1940257;73;21097;-88
2022/06/14 15:45:51;;;;;;;1.50;1.27;;;39.20;60.00;;;;;;1917446;75;21121;-88
2022/06/14 15:48:43;;;;;;;2.75;1.40;;;40.60;57.60;;;;;;1917110;75;21091;-87
2022/06/14 15:51:36;;;;;;;3.35;1.50;;;40.10;56.50;;;;;;1936438;73;21105;-87
2022/06/14 15:54:31;;;;;;;3.35;1.30;;;39.50;56.40;;;;;;1917179;75;21134;-88
2022/06/14 15:57:26;;;;;;;2.98;1.40;;;39.10;57.10;;;;;;1917379;75;21090;-87
2022/06/14 16:00:21;;;;;;;4.03;1.30;;;39.40;56.80;;;;;;1917210;75;21111;-87
2022/06/14 16:03:15;;;;;;;3.20;1.37;;;39.60;55.50;;;;;;1917334;75;21128;-88
2022/06/14 16:06:10;;;;;;;2.05;1.40;;;38.80;56.30;;;;;;1917425;75;21100;-87
2022/06/14 16:09:04;;;;;;;2.35;1.20;;;39.00;56.50;;;;;;1917434;75;21138;-88
2022/06/14 16:11:59;;;;;;;4.60;1.30;;;40.20;55.60;;;;;;1917355;75;21145;-88
2022/06/14 16:14:54;;;;;;;4.92;1.60;;;39.40;54.00;;;;;;1917432;75;21059;-88
2022/06/14 16:17:47;;;;;;;3.58;1.30;;;38.50;55.60;;;;;;1917356;75;21058;-89
2022/06/14 16:20:39;;;;;;;2.47;1.40;;;39.20;55.20;;;;;;1917431;75;21600;-88
2022/06/14 16:23:32;;;;;;;3.52;1.52;;;39.50;54.60;;;;;;1930060;73;21051;-88
2022/06/14 16:26:27;;;;;;;1.70;1.45;;;38.90;53.80;;;;;;1909068;73;21122;-88
2022/06/14 16:29:22;;;;;;;1.57;1.22;;;39.30;53.90;;;;;;1893513;74;21109;-87
2022/06/14 16:32:18;;;;;;;3.05;1.30;;;39.50;53.40;;;;;;1877765;76;21294;-88
2022/06/14 16:35:14;;;;;;;1.25;1.00;;;39.60;53.00;;;;;;1881651;76;21100;-88
2022/06/14 16:38:13;;;;;;;3.22;1.30;;;39.00;53.10;;;;;;1893707;75;21045;-88
2022/06/14 16:41:12;;;;;;;2.35;1.00;;;39.50;53.60;;;;;;1913600;75;21163;-88
2022/06/14 16:44:07;;;;;;;2.70;1.85;;;39.90;52.60;;;;;;1892020;75;21540;-88
2022/06/14 16:47:03;;;;;;;3.72;1.22;;;40.00;54.60;;;;;;1891963;75;21085;-88
2022/06/14 16:49:58;;;;;;;2.77;1.20;;;41.10;51.90;;;;;;1894988;75;21079;-88
2022/06/14 16:52:52;;;;;;;2.40;1.65;;;40.00;51.10;;;;;;1894694;75;21116;-88
2022/06/14 16:55:51;;;;;;;1.55;1.20;;;39.20;52.90;;;;;;1904732;75;21132;-88
2022/06/14 16:58:46;;;;;;;3.55;1.30;;;39.80;51.90;;;;;;1908415;75;21042;-88
2022/06/14 17:01:41;;;;;;;2.45;1.52;;;40.40;51.70;;;;;;1890745;75;21518;-88
2022/06/14 17:04:37;;;;;;;1.25;1.15;;;40.70;51.10;;;;;;1881572;76;21100;-88
2022/06/14 17:07:32;;;;;;;3.92;1.40;;;40.60;50.30;;;;;;1895276;75;21142;-88
2022/06/14 17:10:30;;;;;;;3.17;1.32;;;39.30;51.30;;;;;;1891514;75;21180;-89
2022/06/14 17:13:25;;;;;;;2.75;1.30;;;37.80;52.90;;;;;;1891996;75;21622;-88
2022/06/14 17:16:22;;;;;;;3.00;1.35;;;36.70;54.40;;;;;;1889873;75;21058;-88
2022/06/14 17:19:18;;;;;;;3.17;1.50;;;37.90;54.00;;;;;;1881078;76;21175;-89
2022/06/14 17:22:12;;;;;;;3.47;1.50;;;39.10;53.30;;;;;;1881061;76;21268;-89
2022/06/14 17:25:10;;;;;;;3.77;1.27;;;39.20;53.10;;;;;;1892690;75;21049;-88
2022/06/14 17:31:14;;;;;;;2.60;1.60;;;36.60;55.40;;;;;;1905440;74;21118;-89
2022/06/14 17:34:09;;;;;;;3.52;1.55;;;35.60;57.00;;;;;;1918632;74;21113;-88
2022/06/14 17:37:05;;;;;;;5.67;1.52;;;35.10;58.00;;;;;;1922543;74;21113;-89
2022/06/14 17:42:54;;;;;;;4.97;1.85;;;35.10;58.40;;;;;;1947465;72;27954;-87
2022/06/14 17:46:08;;;;;;;9.73;1.62;;;35.10;58.90;;;;;;1917230;75;21163;-88
2022/06/14 17:49:24;;;;;;;4.85;1.75;;;35.30;58.90;;;;;;1917646;75;21027;-88
2022/06/14 17:52:19;;;;;;;3.25;1.47;;;35.20;59.10;;;;;;1917615;75;21123;-88
2022/06/14 17:55:32;;;;;;;4.87;1.37;;;34.60;60.00;;;;;;1917483;75;21054;-88
2022/06/14 17:58:27;;;;;;;3.77;1.42;;;34.00;60.40;;;;;;1919786;73;21096;-88
2022/06/14 18:04:12;;;;;;;2.67;1.40;;;34.50;61.80;;;;;;1962477;72;22201;-88